sensor_id;sensor_type;location;lat;lon;timestamp;P1;durP1;ratioP1;P2;durP2;ratioP2
22579;SDS011;11456;47.030;15.396;2023-09-08T00:01:48;7.18;;;5.70;;
22579;SDS011;11456;47.030;15.396;2023-09-08T00:04:15;10.98;;;6.13;;
22579;SDS011;11456;47.030;15.396;2023-09-08T00:06:41;11.27;;;6.35;;
22579;SDS011;11456;47.030;15.396;2023-09-08T00:09:08;11.57;;;6.30;;
22579;SDS011;11456;47.030;15.396;2023-09-08T00:11:35;12.07;;;6.25;;
22579;SDS011;11456;47.030;15.396;2023-09-08T00:14:02;9.40;;;5.60;;
22579;SDS011;11456;47.030;15.396;2023-09-08T00:16:30;11.20;;;5.72;;
22579;SDS011;11456;47.030;15.396;2023-09-08T00:18:57;10.23;;;5.60;;
22579;SDS011;11456;47.030;15.396;2023-09-08T00:21:25;7.30;;;5.60;;
22579;SDS011;11456;47.030;15.396;2023-09-08T00:23:52;7.85;;;5.28;;
22579;SDS011;11456;47.030;15.396;2023-09-08T00:26:20;14.20;;;5.75;;
22579;SDS011;11456;47.030;15.396;2023-09-08T00:28:47;7.07;;;5.40;;
22579;SDS011;11456;47.030;15.396;2023-09-08T00:31:14;10.80;;;5.78;;
22579;SDS011;11456;47.030;15.396;2023-09-08T00:33:41;7.82;;;5.68;;
22579;SDS011;11456;47.030;15.396;2023-09-08T00:36:10;8.10;;;5.38;;
22579;SDS011;11456;47.030;15.396;2023-09-08T00:38:38;9.20;;;5.50;;
22579;SDS011;11456;47.030;15.396;2023-09-08T00:41:04;9.20;;;5.93;;
22579;SDS011;11456;47.030;15.396;2023-09-08T00:43:31;7.82;;;5.90;;
22579;SDS011;11456;47.030;15.396;2023-09-08T00:45:58;8.45;;;5.63;;
22579;SDS011;11456;47.030;15.396;2023-09-08T00:48:27;9.07;;;5.45;;
22579;SDS011;11456;47.030;15.396;2023-09-08T00:50:53;7.25;;;5.50;;
22579;SDS011;11456;47.030;15.396;2023-09-08T00:53:20;12.90;;;6.28;;
22579;SDS011;11456;47.030;15.396;2023-09-08T00:55:47;12.45;;;5.82;;
22579;SDS011;11456;47.030;15.396;2023-09-08T00:58:15;9.18;;;6.20;;
22579;SDS011;11456;47.030;15.396;2023-09-08T01:00:41;11.60;;;5.72;;
22579;SDS011;11456;47.030;15.396;2023-09-08T01:03:08;7.55;;;5.10;;
22579;SDS011;11456;47.030;15.396;2023-09-08T01:05:37;12.35;;;5.75;;
22579;SDS011;11456;47.030;15.396;2023-09-08T01:08:06;8.65;;;5.22;;
22579;SDS011;11456;47.030;15.396;2023-09-08T01:10:34;9.27;;;5.72;;
22579;SDS011;11456;47.030;15.396;2023-09-08T01:13:01;9.68;;;6.05;;
22579;SDS011;11456;47.030;15.396;2023-09-08T01:15:27;9.65;;;6.15;;
22579;SDS011;11456;47.030;15.396;2023-09-08T01:17:54;7.85;;;6.30;;
22579;SDS011;11456;47.030;15.396;2023-09-08T01:20:25;9.63;;;6.38;;
22579;SDS011;11456;47.030;15.396;2023-09-08T01:23:11;9.40;;;5.53;;
22579;SDS011;11456;47.030;15.396;2023-09-08T01:25:55;10.50;;;5.95;;
22579;SDS011;11456;47.030;15.396;2023-09-08T01:28:26;11.05;;;6.20;;
22579;SDS011;11456;47.030;15.396;2023-09-08T01:30:53;10.80;;;6.35;;
22579;SDS011;11456;47.030;15.396;2023-09-08T01:33:22;7.68;;;5.60;;
22579;SDS011;11456;47.030;15.396;2023-09-08T01:35:49;9.85;;;5.97;;
22579;SDS011;11456;47.030;15.396;2023-09-08T01:38:16;12.57;;;5.75;;
22579;SDS011;11456;47.030;15.396;2023-09-08T01:40:43;10.57;;;5.70;;
22579;SDS011;11456;47.030;15.396;2023-09-08T01:43:09;10.35;;;6.00;;
22579;SDS011;11456;47.030;15.396;2023-09-08T01:45:36;8.88;;;5.70;;
22579;SDS011;11456;47.030;15.396;2023-09-08T01:48:03;9.23;;;5.75;;
22579;SDS011;11456;47.030;15.396;2023-09-08T01:50:30;6.85;;;5.32;;
22579;SDS011;11456;47.030;15.396;2023-09-08T01:52:57;10.27;;;5.00;;
22579;SDS011;11456;47.030;15.396;2023-09-08T01:55:24;9.30;;;5.30;;
22579;SDS011;11456;47.030;15.396;2023-09-08T01:57:50;12.30;;;6.03;;
22579;SDS011;11456;47.030;15.396;2023-09-08T02:00:17;7.57;;;5.50;;
22579;SDS011;11456;47.030;15.396;2023-09-08T02:02:44;9.45;;;5.47;;
22579;SDS011;11456;47.030;15.396;2023-09-08T02:05:11;8.63;;;5.63;;
22579;SDS011;11456;47.030;15.396;2023-09-08T02:07:38;8.43;;;5.40;;
22579;SDS011;11456;47.030;15.396;2023-09-08T02:10:05;9.57;;;5.03;;
22579;SDS011;11456;47.030;15.396;2023-09-08T02:12:31;9.27;;;5.47;;
22579;SDS011;11456;47.030;15.396;2023-09-08T02:14:58;6.97;;;5.45;;
22579;SDS011;11456;47.030;15.396;2023-09-08T02:17:26;8.18;;;5.15;;
22579;SDS011;11456;47.030;15.396;2023-09-08T02:19:53;7.50;;;5.80;;
22579;SDS011;11456;47.030;15.396;2023-09-08T02:22:20;10.52;;;5.35;;
22579;SDS011;11456;47.030;15.396;2023-09-08T02:24:46;11.43;;;5.78;;
22579;SDS011;11456;47.030;15.396;2023-09-08T02:27:13;7.28;;;5.32;;
22579;SDS011;11456;47.030;15.396;2023-09-08T02:29:40;9.02;;;5.40;;
22579;SDS011;11456;47.030;15.396;2023-09-08T02:32:06;8.10;;;5.60;;
22579;SDS011;11456;47.030;15.396;2023-09-08T02:34:34;7.63;;;5.47;;
22579;SDS011;11456;47.030;15.396;2023-09-08T02:37:05;8.93;;;5.53;;
22579;SDS011;11456;47.030;15.396;2023-09-08T02:39:32;6.22;;;5.20;;
22579;SDS011;11456;47.030;15.396;2023-09-08T02:41:59;9.18;;;5.28;;
22579;SDS011;11456;47.030;15.396;2023-09-08T02:44:27;7.50;;;5.25;;
22579;SDS011;11456;47.030;15.396;2023-09-08T02:46:53;8.27;;;5.40;;
22579;SDS011;11456;47.030;15.396;2023-09-08T02:49:20;8.25;;;5.80;;
22579;SDS011;11456;47.030;15.396;2023-09-08T02:51:47;15.77;;;5.55;;
22579;SDS011;11456;47.030;15.396;2023-09-08T02:54:14;8.98;;;5.55;;
22579;SDS011;11456;47.030;15.396;2023-09-08T02:56:41;7.63;;;5.65;;
22579;SDS011;11456;47.030;15.396;2023-09-08T02:59:08;9.00;;;5.82;;
22579;SDS011;11456;47.030;15.396;2023-09-08T03:01:36;7.55;;;5.38;;
22579;SDS011;11456;47.030;15.396;2023-09-08T03:04:03;6.32;;;4.90;;
22579;SDS011;11456;47.030;15.396;2023-09-08T03:06:31;10.48;;;5.40;;
22579;SDS011;11456;47.030;15.396;2023-09-08T03:08:58;7.63;;;5.60;;
22579;SDS011;11456;47.030;15.396;2023-09-08T03:11:25;10.25;;;5.75;;
22579;SDS011;11456;47.030;15.396;2023-09-08T03:13:52;8.70;;;5.70;;
22579;SDS011;11456;47.030;15.396;2023-09-08T03:16:18;7.72;;;5.20;;
22579;SDS011;11456;47.030;15.396;2023-09-08T03:18:47;7.50;;;5.47;;
22579;SDS011;11456;47.030;15.396;2023-09-08T03:21:14;8.85;;;4.97;;
22579;SDS011;11456;47.030;15.396;2023-09-08T03:23:41;7.65;;;5.70;;
22579;SDS011;11456;47.030;15.396;2023-09-08T03:26:09;10.77;;;5.80;;
22579;SDS011;11456;47.030;15.396;2023-09-08T03:28:37;8.85;;;5.65;;
22579;SDS011;11456;47.030;15.396;2023-09-08T03:31:05;11.02;;;5.93;;
22579;SDS011;11456;47.030;15.396;2023-09-08T03:33:34;9.27;;;6.15;;
22579;SDS011;11456;47.030;15.396;2023-09-08T03:36:02;12.30;;;5.65;;
22579;SDS011;11456;47.030;15.396;2023-09-08T03:38:29;13.43;;;6.28;;
22579;SDS011;11456;47.030;15.396;2023-09-08T03:40:56;8.82;;;5.60;;
22579;SDS011;11456;47.030;15.396;2023-09-08T03:43:24;11.57;;;5.93;;
22579;SDS011;11456;47.030;15.396;2023-09-08T03:45:50;11.68;;;6.10;;
22579;SDS011;11456;47.030;15.396;2023-09-08T03:48:17;11.20;;;5.68;;
22579;SDS011;11456;47.030;15.396;2023-09-08T03:50:44;10.77;;;6.55;;
22579;SDS011;11456;47.030;15.396;2023-09-08T03:53:12;8.90;;;6.32;;
22579;SDS011;11456;47.030;15.396;2023-09-08T03:55:39;9.43;;;6.10;;
22579;SDS011;11456;47.030;15.396;2023-09-08T03:58:05;9.50;;;6.00;;
22579;SDS011;11456;47.030;15.396;2023-09-08T04:00:32;8.75;;;5.90;;
22579;SDS011;11456;47.030;15.396;2023-09-08T04:02:59;11.77;;;5.97;;
22579;SDS011;11456;47.030;15.396;2023-09-08T04:05:26;10.02;;;5.88;;
22579;SDS011;11456;47.030;15.396;2023-09-08T04:07:53;9.68;;;6.10;;
22579;SDS011;11456;47.030;15.396;2023-09-08T04:10:20;11.05;;;6.07;;
22579;SDS011;11456;47.030;15.396;2023-09-08T04:12:46;7.75;;;5.82;;
22579;SDS011;11456;47.030;15.396;2023-09-08T04:15:13;11.60;;;6.20;;
22579;SDS011;11456;47.030;15.396;2023-09-08T04:17:40;9.45;;;6.22;;
22579;SDS011;11456;47.030;15.396;2023-09-08T04:20:06;9.43;;;6.45;;
22579;SDS011;11456;47.030;15.396;2023-09-08T04:22:37;8.43;;;5.53;;
22579;SDS011;11456;47.030;15.396;2023-09-08T04:25:03;10.25;;;6.07;;
22579;SDS011;11456;47.030;15.396;2023-09-08T04:27:32;8.40;;;5.35;;
22579;SDS011;11456;47.030;15.396;2023-09-08T04:29:59;10.93;;;6.35;;
22579;SDS011;11456;47.030;15.396;2023-09-08T04:32:26;8.60;;;6.22;;
22579;SDS011;11456;47.030;15.396;2023-09-08T04:34:53;13.18;;;6.35;;
22579;SDS011;11456;47.030;15.396;2023-09-08T04:37:19;8.35;;;6.38;;
22579;SDS011;11456;47.030;15.396;2023-09-08T04:39:47;10.20;;;6.32;;
22579;SDS011;11456;47.030;15.396;2023-09-08T04:42:14;11.38;;;6.43;;
22579;SDS011;11456;47.030;15.396;2023-09-08T04:44:41;9.48;;;6.63;;
22579;SDS011;11456;47.030;15.396;2023-09-08T04:47:08;11.57;;;6.90;;
22579;SDS011;11456;47.030;15.396;2023-09-08T04:49:35;10.25;;;6.80;;
22579;SDS011;11456;47.030;15.396;2023-09-08T04:52:03;9.05;;;6.40;;
22579;SDS011;11456;47.030;15.396;2023-09-08T04:54:31;13.77;;;6.78;;
22579;SDS011;11456;47.030;15.396;2023-09-08T04:56:58;10.35;;;6.28;;
22579;SDS011;11456;47.030;15.396;2023-09-08T04:59:46;12.80;;;7.20;;
22579;SDS011;11456;47.030;15.396;2023-09-08T05:02:13;15.57;;;7.07;;
22579;SDS011;11456;47.030;15.396;2023-09-08T05:04:41;13.40;;;6.60;;
22579;SDS011;11456;47.030;15.396;2023-09-08T05:07:09;13.55;;;7.25;;
22579;SDS011;11456;47.030;15.396;2023-09-08T05:09:37;12.73;;;7.10;;
22579;SDS011;11456;47.030;15.396;2023-09-08T05:12:03;25.15;;;7.30;;
22579;SDS011;11456;47.030;15.396;2023-09-08T05:14:31;20.27;;;7.10;;
22579;SDS011;11456;47.030;15.396;2023-09-08T05:16:58;13.45;;;6.97;;
22579;SDS011;11456;47.030;15.396;2023-09-08T05:19:26;15.57;;;7.03;;
22579;SDS011;11456;47.030;15.396;2023-09-08T05:21:54;15.73;;;6.85;;
22579;SDS011;11456;47.030;15.396;2023-09-08T05:24:22;10.07;;;6.05;;
22579;SDS011;11456;47.030;15.396;2023-09-08T05:26:49;13.05;;;8.55;;
22579;SDS011;11456;47.030;15.396;2023-09-08T05:29:16;12.77;;;6.80;;
22579;SDS011;11456;47.030;15.396;2023-09-08T05:31:43;10.82;;;7.78;;
22579;SDS011;11456;47.030;15.396;2023-09-08T05:34:11;12.95;;;7.80;;
22579;SDS011;11456;47.030;15.396;2023-09-08T05:36:37;11.18;;;7.63;;
22579;SDS011;11456;47.030;15.396;2023-09-08T05:39:07;15.75;;;7.45;;
22579;SDS011;11456;47.030;15.396;2023-09-08T05:41:33;18.15;;;7.25;;
22579;SDS011;11456;47.030;15.396;2023-09-08T05:44:02;16.17;;;8.25;;
22579;SDS011;11456;47.030;15.396;2023-09-08T05:46:29;25.75;;;9.07;;
22579;SDS011;11456;47.030;15.396;2023-09-08T05:48:56;20.42;;;9.55;;
22579;SDS011;11456;47.030;15.396;2023-09-08T05:51:24;22.95;;;9.43;;
22579;SDS011;11456;47.030;15.396;2023-09-08T05:53:52;20.98;;;9.15;;
22579;SDS011;11456;47.030;15.396;2023-09-08T05:56:19;20.30;;;8.88;;
22579;SDS011;11456;47.030;15.396;2023-09-08T05:58:47;21.60;;;9.15;;
22579;SDS011;11456;47.030;15.396;2023-09-08T06:01:14;27.38;;;10.10;;
22579;SDS011;11456;47.030;15.396;2023-09-08T06:03:42;27.38;;;10.23;;
22579;SDS011;11456;47.030;15.396;2023-09-08T06:06:09;26.10;;;9.38;;
22579;SDS011;11456;47.030;15.396;2023-09-08T06:08:36;29.20;;;9.98;;
22579;SDS011;11456;47.030;15.396;2023-09-08T06:11:03;40.15;;;9.48;;
22579;SDS011;11456;47.030;15.396;2023-09-08T06:13:32;19.85;;;9.13;;
22579;SDS011;11456;47.030;15.396;2023-09-08T06:15:59;26.25;;;9.30;;
22579;SDS011;11456;47.030;15.396;2023-09-08T06:18:27;25.15;;;9.80;;
22579;SDS011;11456;47.030;15.396;2023-09-08T06:20:56;36.80;;;9.13;;
22579;SDS011;11456;47.030;15.396;2023-09-08T06:23:23;23.33;;;8.93;;
22579;SDS011;11456;47.030;15.396;2023-09-08T06:25:55;37.40;;;8.93;;
22579;SDS011;11456;47.030;15.396;2023-09-08T06:28:29;22.50;;;8.40;;
22579;SDS011;11456;47.030;15.396;2023-09-08T06:30:56;31.33;;;9.10;;
22579;SDS011;11456;47.030;15.396;2023-09-08T06:33:23;33.70;;;9.05;;
22579;SDS011;11456;47.030;15.396;2023-09-08T06:35:50;24.90;;;8.65;;
22579;SDS011;11456;47.030;15.396;2023-09-08T06:38:18;26.80;;;8.82;;
22579;SDS011;11456;47.030;15.396;2023-09-08T06:40:45;30.33;;;8.48;;
22579;SDS011;11456;47.030;15.396;2023-09-08T06:43:12;23.40;;;9.00;;
22579;SDS011;11456;47.030;15.396;2023-09-08T06:45:49;25.85;;;8.10;;
22579;SDS011;11456;47.030;15.396;2023-09-08T06:48:16;21.45;;;8.50;;
22579;SDS011;11456;47.030;15.396;2023-09-08T06:50:43;30.42;;;8.55;;
22579;SDS011;11456;47.030;15.396;2023-09-08T06:53:09;33.28;;;8.45;;
22579;SDS011;11456;47.030;15.396;2023-09-08T06:55:37;28.65;;;8.27;;
22579;SDS011;11456;47.030;15.396;2023-09-08T06:58:04;20.60;;;8.20;;
22579;SDS011;11456;47.030;15.396;2023-09-08T07:00:31;25.42;;;7.85;;
22579;SDS011;11456;47.030;15.396;2023-09-08T07:02:58;25.60;;;8.02;;
22579;SDS011;11456;47.030;15.396;2023-09-08T07:05:25;25.65;;;8.05;;
22579;SDS011;11456;47.030;15.396;2023-09-08T07:07:52;23.65;;;6.93;;
22579;SDS011;11456;47.030;15.396;2023-09-08T07:10:19;22.85;;;7.43;;
22579;SDS011;11456;47.030;15.396;2023-09-08T07:12:47;14.55;;;6.90;;
22579;SDS011;11456;47.030;15.396;2023-09-08T07:15:15;16.30;;;6.78;;
22579;SDS011;11456;47.030;15.396;2023-09-08T07:17:42;17.55;;;6.50;;
22579;SDS011;11456;47.030;15.396;2023-09-08T07:20:09;14.95;;;6.78;;
22579;SDS011;11456;47.030;15.396;2023-09-08T07:22:37;22.27;;;6.93;;
22579;SDS011;11456;47.030;15.396;2023-09-08T07:25:04;14.30;;;6.63;;
22579;SDS011;11456;47.030;15.396;2023-09-08T07:27:31;20.88;;;6.72;;
22579;SDS011;11456;47.030;15.396;2023-09-08T07:29:58;15.65;;;7.15;;
22579;SDS011;11456;47.030;15.396;2023-09-08T07:32:25;14.43;;;6.82;;
22579;SDS011;11456;47.030;15.396;2023-09-08T07:34:51;15.60;;;6.82;;
22579;SDS011;11456;47.030;15.396;2023-09-08T07:37:22;16.60;;;7.43;;
22579;SDS011;11456;47.030;15.396;2023-09-08T07:39:50;13.35;;;7.05;;
22579;SDS011;11456;47.030;15.396;2023-09-08T07:42:18;13.82;;;6.55;;
22579;SDS011;11456;47.030;15.396;2023-09-08T07:44:46;17.48;;;6.90;;
22579;SDS011;11456;47.030;15.396;2023-09-08T07:47:13;16.92;;;7.32;;
22579;SDS011;11456;47.030;15.396;2023-09-08T07:49:44;17.02;;;6.38;;
22579;SDS011;11456;47.030;15.396;2023-09-08T07:52:13;13.82;;;6.80;;
22579;SDS011;11456;47.030;15.396;2023-09-08T07:54:39;11.88;;;6.20;;
22579;SDS011;11456;47.030;15.396;2023-09-08T07:57:06;7.93;;;5.68;;
22579;SDS011;11456;47.030;15.396;2023-09-08T07:59:33;13.25;;;6.20;;
22579;SDS011;11456;47.030;15.396;2023-09-08T08:02:03;12.82;;;5.95;;
22579;SDS011;11456;47.030;15.396;2023-09-08T08:04:29;11.10;;;6.00;;
22579;SDS011;11456;47.030;15.396;2023-09-08T08:06:56;12.38;;;6.07;;
22579;SDS011;11456;47.030;15.396;2023-09-08T08:09:23;9.18;;;5.15;;
22579;SDS011;11456;47.030;15.396;2023-09-08T08:11:50;12.02;;;5.20;;
22579;SDS011;11456;47.030;15.396;2023-09-08T08:14:16;10.80;;;5.85;;
22579;SDS011;11456;47.030;15.396;2023-09-08T08:16:43;15.38;;;5.95;;
22579;SDS011;11456;47.030;15.396;2023-09-08T08:19:10;13.85;;;6.20;;
22579;SDS011;11456;47.030;15.396;2023-09-08T08:21:36;11.32;;;5.70;;
22579;SDS011;11456;47.030;15.396;2023-09-08T08:24:04;12.45;;;5.68;;
22579;SDS011;11456;47.030;15.396;2023-09-08T08:26:31;13.68;;;5.53;;
22579;SDS011;11456;47.030;15.396;2023-09-08T08:28:59;11.07;;;5.70;;
22579;SDS011;11456;47.030;15.396;2023-09-08T08:31:26;10.82;;;5.20;;
22579;SDS011;11456;47.030;15.396;2023-09-08T08:33:53;10.45;;;5.47;;
22579;SDS011;11456;47.030;15.396;2023-09-08T08:36:20;11.63;;;5.88;;
22579;SDS011;11456;47.030;15.396;2023-09-08T08:38:46;9.07;;;5.13;;
22579;SDS011;11456;47.030;15.396;2023-09-08T08:41:13;15.18;;;6.10;;
22579;SDS011;11456;47.030;15.396;2023-09-08T08:43:40;12.40;;;5.45;;
22579;SDS011;11456;47.030;15.396;2023-09-08T08:46:09;16.65;;;5.70;;
22579;SDS011;11456;47.030;15.396;2023-09-08T08:48:36;8.18;;;4.78;;
22579;SDS011;11456;47.030;15.396;2023-09-08T08:51:04;8.07;;;5.18;;
22579;SDS011;11456;47.030;15.396;2023-09-08T08:53:32;11.05;;;5.25;;
22579;SDS011;11456;47.030;15.396;2023-09-08T08:56:00;9.38;;;5.00;;
22579;SDS011;11456;47.030;15.396;2023-09-08T08:58:27;15.65;;;5.50;;
22579;SDS011;11456;47.030;15.396;2023-09-08T09:00:55;11.20;;;4.63;;
22579;SDS011;11456;47.030;15.396;2023-09-08T09:03:26;11.82;;;5.38;;
22579;SDS011;11456;47.030;15.396;2023-09-08T09:05:54;14.07;;;4.65;;
22579;SDS011;11456;47.030;15.396;2023-09-08T09:08:20;11.48;;;4.90;;
22579;SDS011;11456;47.030;15.396;2023-09-08T09:10:50;15.05;;;5.22;;
22579;SDS011;11456;47.030;15.396;2023-09-08T09:13:18;11.50;;;4.90;;
22579;SDS011;11456;47.030;15.396;2023-09-08T09:15:46;11.32;;;4.97;;
22579;SDS011;11456;47.030;15.396;2023-09-08T09:18:13;8.88;;;4.35;;
22579;SDS011;11456;47.030;15.396;2023-09-08T09:20:40;13.93;;;4.45;;
22579;SDS011;11456;47.030;15.396;2023-09-08T09:23:37;7.10;;;4.22;;
22579;SDS011;11456;47.030;15.396;2023-09-08T09:26:03;8.40;;;4.10;;
22579;SDS011;11456;47.030;15.396;2023-09-08T09:28:30;9.07;;;4.72;;
22579;SDS011;11456;47.030;15.396;2023-09-08T09:30:58;10.02;;;4.72;;
22579;SDS011;11456;47.030;15.396;2023-09-08T09:33:25;11.90;;;4.82;;
22579;SDS011;11456;47.030;15.396;2023-09-08T09:35:54;14.73;;;5.15;;
22579;SDS011;11456;47.030;15.396;2023-09-08T09:38:21;18.25;;;4.85;;
22579;SDS011;11456;47.030;15.396;2023-09-08T09:40:48;12.90;;;4.97;;
22579;SDS011;11456;47.030;15.396;2023-09-08T09:43:16;19.83;;;4.82;;
22579;SDS011;11456;47.030;15.396;2023-09-08T09:45:43;11.90;;;4.55;;
22579;SDS011;11456;47.030;15.396;2023-09-08T09:48:10;12.88;;;4.70;;
22579;SDS011;11456;47.030;15.396;2023-09-08T09:50:38;23.10;;;5.13;;
22579;SDS011;11456;47.030;15.396;2023-09-08T09:55:38;18.15;;;5.20;;
22579;SDS011;11456;47.030;15.396;2023-09-08T09:58:07;14.48;;;5.07;;
22579;SDS011;11456;47.030;15.396;2023-09-08T10:00:34;17.40;;;4.20;;
22579;SDS011;11456;47.030;15.396;2023-09-08T10:03:03;10.57;;;3.83;;
22579;SDS011;11456;47.030;15.396;2023-09-08T10:05:31;12.85;;;4.18;;
22579;SDS011;11456;47.030;15.396;2023-09-08T10:07:57;13.45;;;4.43;;
22579;SDS011;11456;47.030;15.396;2023-09-08T10:10:26;14.90;;;3.78;;
22579;SDS011;11456;47.030;15.396;2023-09-08T10:12:55;11.18;;;4.07;;
22579;SDS011;11456;47.030;15.396;2023-09-08T10:17:54;9.45;;;3.97;;
22579;SDS011;11456;47.030;15.396;2023-09-08T10:20:25;10.88;;;4.00;;
22579;SDS011;11456;47.030;15.396;2023-09-08T10:22:58;11.30;;;3.90;;
22579;SDS011;11456;47.030;15.396;2023-09-08T10:25:31;6.45;;;3.42;;
22579;SDS011;11456;47.030;15.396;2023-09-08T10:28:02;5.88;;;3.35;;
22579;SDS011;11456;47.030;15.396;2023-09-08T10:30:30;7.55;;;3.63;;
22579;SDS011;11456;47.030;15.396;2023-09-08T10:32:58;19.02;;;3.95;;
22579;SDS011;11456;47.030;15.396;2023-09-08T10:35:27;6.43;;;3.15;;
22579;SDS011;11456;47.030;15.396;2023-09-08T10:43:14;6.68;;;3.60;;
22579;SDS011;11456;47.030;15.396;2023-09-08T10:45:40;9.32;;;3.78;;
22579;SDS011;11456;47.030;15.396;2023-09-08T10:48:10;10.80;;;3.38;;
22579;SDS011;11456;47.030;15.396;2023-09-08T10:50:41;12.38;;;3.58;;
22579;SDS011;11456;47.030;15.396;2023-09-08T10:55:43;7.93;;;3.70;;
22579;SDS011;11456;47.030;15.396;2023-09-08T10:58:33;7.85;;;3.30;;
22579;SDS011;11456;47.030;15.396;2023-09-08T11:01:02;7.05;;;3.65;;
22579;SDS011;11456;47.030;15.396;2023-09-08T11:06:04;11.32;;;3.90;;
22579;SDS011;11456;47.030;15.396;2023-09-08T11:08:32;14.73;;;3.90;;
22579;SDS011;11456;47.030;15.396;2023-09-08T11:10:59;8.07;;;3.72;;
22579;SDS011;11456;47.030;15.396;2023-09-08T11:13:27;11.25;;;4.15;;
22579;SDS011;11456;47.030;15.396;2023-09-08T11:15:58;9.90;;;3.50;;
22579;SDS011;11456;47.030;15.396;2023-09-08T11:18:26;8.23;;;3.47;;
22579;SDS011;11456;47.030;15.396;2023-09-08T11:20:56;11.77;;;3.85;;
22579;SDS011;11456;47.030;15.396;2023-09-08T11:23:24;10.02;;;3.83;;
22579;SDS011;11456;47.030;15.396;2023-09-08T11:25:50;14.68;;;4.00;;
22579;SDS011;11456;47.030;15.396;2023-09-08T11:28:17;8.10;;;3.90;;
22579;SDS011;11456;47.030;15.396;2023-09-08T11:30:48;15.63;;;4.07;;
22579;SDS011;11456;47.030;15.396;2023-09-08T11:33:18;7.85;;;3.60;;
22579;SDS011;11456;47.030;15.396;2023-09-08T11:35:45;5.25;;;3.20;;
22579;SDS011;11456;47.030;15.396;2023-09-08T11:38:12;9.23;;;3.70;;
22579;SDS011;11456;47.030;15.396;2023-09-08T11:40:40;6.88;;;3.28;;
22579;SDS011;11456;47.030;15.396;2023-09-08T11:43:07;11.52;;;3.65;;
22579;SDS011;11456;47.030;15.396;2023-09-08T11:45:34;8.15;;;3.63;;
22579;SDS011;11456;47.030;15.396;2023-09-08T11:48:01;10.77;;;3.67;;
22579;SDS011;11456;47.030;15.396;2023-09-08T11:50:31;17.00;;;3.38;;
22579;SDS011;11456;47.030;15.396;2023-09-08T11:52:58;7.35;;;3.45;;
22579;SDS011;11456;47.030;15.396;2023-09-08T11:55:25;10.13;;;3.40;;
22579;SDS011;11456;47.030;15.396;2023-09-08T11:57:53;8.43;;;3.58;;
22579;SDS011;11456;47.030;15.396;2023-09-08T12:00:21;6.47;;;3.45;;
22579;SDS011;11456;47.030;15.396;2023-09-08T12:02:49;12.77;;;3.50;;
22579;SDS011;11456;47.030;15.396;2023-09-08T12:05:23;12.05;;;3.63;;
22579;SDS011;11456;47.030;15.396;2023-09-08T12:07:51;9.77;;;3.33;;
22579;SDS011;11456;47.030;15.396;2023-09-08T12:10:20;7.18;;;3.20;;
22579;SDS011;11456;47.030;15.396;2023-09-08T12:12:51;9.07;;;3.45;;
22579;SDS011;11456;47.030;15.396;2023-09-08T12:15:29;6.95;;;3.50;;
22579;SDS011;11456;47.030;15.396;2023-09-08T12:17:58;9.00;;;3.80;;
22579;SDS011;11456;47.030;15.396;2023-09-08T12:20:25;11.95;;;3.67;;
22579;SDS011;11456;47.030;15.396;2023-09-08T12:22:52;8.23;;;3.35;;
22579;SDS011;11456;47.030;15.396;2023-09-08T12:25:19;9.73;;;4.00;;
22579;SDS011;11456;47.030;15.396;2023-09-08T12:27:49;9.60;;;3.45;;
22579;SDS011;11456;47.030;15.396;2023-09-08T12:30:20;5.93;;;3.20;;
22579;SDS011;11456;47.030;15.396;2023-09-08T12:32:50;6.32;;;3.30;;
22579;SDS011;11456;47.030;15.396;2023-09-08T12:35:21;12.25;;;3.38;;
22579;SDS011;11456;47.030;15.396;2023-09-08T12:37:57;6.22;;;3.45;;
22579;SDS011;11456;47.030;15.396;2023-09-08T12:40:26;7.57;;;3.13;;
22579;SDS011;11456;47.030;15.396;2023-09-08T12:42:53;4.57;;;3.20;;
22579;SDS011;11456;47.030;15.396;2023-09-08T12:45:30;6.28;;;3.30;;
22579;SDS011;11456;47.030;15.396;2023-09-08T12:48:00;10.05;;;3.60;;
22579;SDS011;11456;47.030;15.396;2023-09-08T12:50:30;6.70;;;3.17;;
22579;SDS011;11456;47.030;15.396;2023-09-08T12:52:57;9.45;;;3.47;;
22579;SDS011;11456;47.030;15.396;2023-09-08T12:55:24;8.60;;;3.22;;
22579;SDS011;11456;47.030;15.396;2023-09-08T12:57:50;8.18;;;3.13;;
22579;SDS011;11456;47.030;15.396;2023-09-08T13:00:21;6.32;;;2.90;;
22579;SDS011;11456;47.030;15.396;2023-09-08T13:02:49;9.55;;;3.45;;
22579;SDS011;11456;47.030;15.396;2023-09-08T13:05:16;8.60;;;3.05;;
22579;SDS011;11456;47.030;15.396;2023-09-08T13:07:43;10.50;;;3.40;;
22579;SDS011;11456;47.030;15.396;2023-09-08T13:10:10;5.00;;;3.10;;
22579;SDS011;11456;47.030;15.396;2023-09-08T13:12:37;4.82;;;3.45;;
22579;SDS011;11456;47.030;15.396;2023-09-08T13:15:04;5.07;;;2.95;;
22579;SDS011;11456;47.030;15.396;2023-09-08T13:17:31;6.53;;;2.88;;
22579;SDS011;11456;47.030;15.396;2023-09-08T13:19:58;9.70;;;3.10;;
22579;SDS011;11456;47.030;15.396;2023-09-08T13:22:25;8.80;;;3.40;;
22579;SDS011;11456;47.030;15.396;2023-09-08T13:24:52;5.43;;;2.88;;
22579;SDS011;11456;47.030;15.396;2023-09-08T13:27:18;8.68;;;4.03;;
22579;SDS011;11456;47.030;15.396;2023-09-08T13:29:45;7.40;;;3.50;;
22579;SDS011;11456;47.030;15.396;2023-09-08T13:32:12;8.13;;;3.60;;
22579;SDS011;11456;47.030;15.396;2023-09-08T13:34:38;7.13;;;3.10;;
22579;SDS011;11456;47.030;15.396;2023-09-08T13:37:05;9.50;;;3.22;;
22579;SDS011;11456;47.030;15.396;2023-09-08T13:39:32;7.45;;;3.67;;
22579;SDS011;11456;47.030;15.396;2023-09-08T13:41:59;6.93;;;3.35;;
22579;SDS011;11456;47.030;15.396;2023-09-08T13:44:27;8.07;;;3.45;;
22579;SDS011;11456;47.030;15.396;2023-09-08T13:46:54;9.63;;;3.67;;
22579;SDS011;11456;47.030;15.396;2023-09-08T13:49:21;10.23;;;3.60;;
22579;SDS011;11456;47.030;15.396;2023-09-08T13:51:53;4.65;;;3.28;;
22579;SDS011;11456;47.030;15.396;2023-09-08T13:54:22;8.80;;;3.42;;
22579;SDS011;11456;47.030;15.396;2023-09-08T13:56:58;11.73;;;3.97;;
22579;SDS011;11456;47.030;15.396;2023-09-08T13:59:28;8.02;;;3.38;;
22579;SDS011;11456;47.030;15.396;2023-09-08T14:02:01;7.35;;;3.47;;
22579;SDS011;11456;47.030;15.396;2023-09-08T14:04:49;8.40;;;3.67;;
22579;SDS011;11456;47.030;15.396;2023-09-08T14:07:19;8.98;;;3.75;;
22579;SDS011;11456;47.030;15.396;2023-09-08T14:09:53;6.20;;;3.38;;
22579;SDS011;11456;47.030;15.396;2023-09-08T14:12:31;8.23;;;3.33;;
22579;SDS011;11456;47.030;15.396;2023-09-08T14:15:01;10.40;;;3.60;;
22579;SDS011;11456;47.030;15.396;2023-09-08T14:17:28;37.92;;;4.38;;
22579;SDS011;11456;47.030;15.396;2023-09-08T14:19:55;10.88;;;3.03;;
22579;SDS011;11456;47.030;15.396;2023-09-08T14:22:22;10.60;;;3.53;;
22579;SDS011;11456;47.030;15.396;2023-09-08T14:24:49;12.55;;;4.05;;
22579;SDS011;11456;47.030;15.396;2023-09-08T14:27:16;5.15;;;3.50;;
22579;SDS011;11456;47.030;15.396;2023-09-08T14:29:42;7.57;;;3.20;;
22579;SDS011;11456;47.030;15.396;2023-09-08T14:32:09;7.13;;;3.53;;
22579;SDS011;11456;47.030;15.396;2023-09-08T14:34:36;8.13;;;3.75;;
22579;SDS011;11456;47.030;15.396;2023-09-08T14:37:03;8.75;;;3.40;;
22579;SDS011;11456;47.030;15.396;2023-09-08T14:39:32;4.45;;;3.53;;
22579;SDS011;11456;47.030;15.396;2023-09-08T14:41:58;8.73;;;3.60;;
22579;SDS011;11456;47.030;15.396;2023-09-08T14:44:25;6.20;;;3.20;;
22579;SDS011;11456;47.030;15.396;2023-09-08T14:46:52;8.25;;;3.70;;
22579;SDS011;11456;47.030;15.396;2023-09-08T14:49:18;6.78;;;3.40;;